Time;durP1;ratioP1;P1;durP2;ratioP2;P2;SDS_P1;SDS_P2;PMS_P1;PMS_P2;Temp;Humidity;BMP_temperature;BMP_pressure;BME280_temperature;BME280_humidity;BME280_pressure;Samples;Min_cycle;Max_cycle;Signal;HPM_P1;HPM_P2
2024/03/20 00:01:46;;;;;;;70.40;36.70;;;;;;;-1.22;78.47;102185.09;104660;1258;75343;-60
2024/03/20 00:04:12;;;;;;;67.90;39.10;;;;;;;-1.23;78.51;102182.75;104820;1257;139002;-61
2024/03/20 00:06:39;;;;;;;76.90;43.00;;;;;;;-1.23;78.62;102177.73;104761;1257;74039;-61
2024/03/20 00:09:07;;;;;;;76.30;40.10;;;;;;;-1.24;78.68;102178.13;104690;1258;140866;-61
2024/03/20 00:11:35;;;;;;;66.30;34.30;;;;;;;-1.26;78.55;102177.06;104772;1256;62437;-61
2024/03/20 00:14:05;;;;;;;57.70;32.40;;;;;;;-1.30;78.69;102175.03;104663;1257;76086;-61
2024/03/20 00:16:31;;;;;;;49.40;30.10;;;;;;;-1.30;78.86;102172.90;104617;1257;145977;-62
2024/03/20 00:18:58;;;;;;;56.70;31.70;;;;;;;-1.31;78.85;102173.64;104791;1257;71985;-62
2024/03/20 00:21:26;;;;;;;57.40;30.50;;;;;;;-1.34;78.81;102174.61;104754;1259;139910;-62
2024/03/20 00:23:53;;;;;;;53.00;32.80;;;;;;;-1.36;78.88;102172.67;104735;1259;62145;-61
2024/03/20 00:26:19;;;;;;;57.20;31.70;;;;;;;-1.38;78.89;102168.04;104870;1257;73495;-61
2024/03/20 00:28:46;;;;;;;58.20;34.80;;;;;;;-1.41;78.97;102166.27;104588;1258;138117;-61
2024/03/20 00:31:12;;;;;;;60.10;35.90;;;;;;;-1.44;79.10;102167.14;104757;1258;62087;-61
2024/03/20 00:33:39;;;;;;;63.20;36.90;;;;;;;-1.47;79.10;102167.89;104626;1256;138012;-62
2024/03/20 00:36:06;;;;;;;78.90;39.80;;;;;;;-1.50;79.09;102165.19;104852;1256;62089;-62
2024/03/20 00:38:33;;;;;;;60.70;36.60;;;;;;;-1.53;78.95;102166.81;104974;1257;75362;-62
2024/03/20 00:40:59;;;;;;;63.30;36.20;;;;;;;-1.54;79.13;102159.21;104888;1257;138707;-60
2024/03/20 00:43:26;;;;;;;60.70;34.20;;;;;;;-1.57;79.12;102158.31;104864;1259;73615;-63
2024/03/20 00:45:52;;;;;;;59.70;35.70;;;;;;;-1.60;79.07;102156.16;104666;1260;138994;-63
2024/03/20 00:48:19;;;;;;;69.00;36.20;;;;;;;-1.61;79.27;102157.05;104802;1258;62132;-63
2024/03/20 00:50:45;;;;;;;77.60;39.60;;;;;;;-1.63;79.27;102146.58;104860;1256;73771;-63
2024/03/20 00:53:12;;;;;;;71.90;36.80;;;;;;;-1.63;79.36;102144.64;108686;1256;139737;-62
2024/03/20 00:55:41;;;;;;;64.50;35.30;;;;;;;-1.63;79.47;102138.30;108923;1256;72993;-61
2024/03/20 00:58:10;;;;;;;64.30;33.90;;;;;;;-1.62;79.32;102140.96;106443;1256;140017;-61
2024/03/20 01:00:38;;;;;;;60.30;32.60;;;;;;;-1.61;79.37;102138.31;108874;1256;61195;-62
2024/03/20 01:03:04;;;;;;;59.40;32.20;;;;;;;-1.61;79.29;102138.27;108807;1256;139153;-61
2024/03/20 01:05:31;;;;;;;64.20;34.10;;;;;;;-1.61;79.37;102134.66;109034;1256;64860;-61
2024/03/20 01:07:58;;;;;;;70.00;34.10;;;;;;;-1.60;79.37;102132.69;108960;1256;71472;-62
2024/03/20 01:10:25;;;;;;;57.70;31.80;;;;;;;-1.60;79.27;102135.50;107953;1256;138958;-60
2024/03/20 01:12:52;;;;;;;67.00;38.10;;;;;;;-1.60;79.30;102131.86;104909;1260;62074;-60
2024/03/20 01:15:18;;;;;;;68.50;38.50;;;;;;;-1.61;79.21;102129.50;104602;1259;139191;-60
2024/03/20 01:17:45;;;;;;;67.70;39.00;;;;;;;-1.62;79.41;102130.44;104850;1259;66591;-61
2024/03/20 01:20:12;;;;;;;69.10;36.50;;;;;;;-1.61;79.35;102129.71;104757;1256;73282;-61
2024/03/20 01:22:39;;;;;;;67.10;37.30;;;;;;;-1.61;79.41;102133.33;104729;1259;139358;-61
2024/03/20 01:25:06;;;;;;;69.20;37.90;;;;;;;-1.60;79.54;102130.10;104606;1263;62160;-60
2024/03/20 01:27:34;;;;;;;74.40;39.80;;;;;;;-1.61;79.45;102132.30;108887;1256;139138;-61
2024/03/20 01:30:00;;;;;;;90.20;44.00;;;;;;;-1.62;79.56;102131.52;108938;1256;65186;-61
2024/03/20 01:32:27;;;;;;;84.70;45.80;;;;;;;-1.62;79.51;102127.59;108893;1256;72714;-61
2024/03/20 01:34:54;;;;;;;91.00;44.60;;;;;;;-1.63;79.32;102122.82;108822;1255;138865;-62
2024/03/20 01:37:20;;;;;;;83.10;42.30;;;;;;;-1.65;79.29;102118.30;108935;1256;59953;-61
2024/03/20 01:39:47;;;;;;;78.10;41.80;;;;;;;-1.66;79.27;102116.46;108816;1255;139470;-62
2024/03/20 01:42:13;;;;;;;80.10;42.70;;;;;;;-1.69;79.24;102118.47;108969;1255;65735;-62
2024/03/20 01:44:40;;;;;;;71.20;38.00;;;;;;;-1.69;79.33;102115.02;109006;1256;73253;-61
2024/03/20 01:47:07;;;;;;;73.70;41.40;;;;;;;-1.71;79.18;102113.25;108823;1256;138192;-61
2024/03/20 01:49:34;;;;;;;75.10;41.00;;;;;;;-1.75;79.07;102109.10;108845;1256;60214;-62
2024/03/20 01:52:00;;;;;;;79.90;40.10;;;;;;;-1.75;79.13;102107.02;105419;1256;139373;-62
2024/03/20 01:54:27;;;;;;;66.20;36.50;;;;;;;-1.77;79.23;102106.14;104717;1258;65777;-61
2024/03/20 01:56:54;;;;;;;57.00;34.70;;;;;;;-1.82;79.11;102102.81;104640;1260;138688;-63
2024/03/20 01:59:21;;;;;;;56.00;34.10;;;;;;;-1.83;79.37;102100.57;107384;1256;62170;-61
2024/03/20 02:01:47;;;;;;;64.70;35.50;;;;;;;-1.85;79.29;102104.48;104805;1256;61914;-61
2024/03/20 02:04:14;;;;;;;64.10;33.20;;;;;;;-1.87;79.47;102101.39;104608;1257;138839;-61
2024/03/20 02:06:41;;;;;;;61.70;32.10;;;;;;;-1.88;79.55;102104.24;108886;1255;66944;-62
2024/03/20 02:09:08;;;;;;;59.40;34.40;;;;;;;-1.88;79.50;102102.70;108716;1255;139494;-62
2024/03/20 02:11:35;;;;;;;54.60;33.10;;;;;;;-1.89;79.47;102102.07;109026;1255;59873;-62
2024/03/20 02:14:02;;;;;;;56.80;33.10;;;;;;;-1.90;79.49;102098.03;107929;1259;62026;-61
2024/03/20 02:16:29;;;;;;;57.50;32.40;;;;;;;-1.88;79.47;102097.98;104823;1259;139069;-61
2024/03/20 02:18:56;;;;;;;62.70;32.70;;;;;;;-1.87;79.61;102094.17;104596;1259;68789;-61
2024/03/20 02:21:23;;;;;;;57.90;31.20;;;;;;;-1.84;79.71;102091.34;108776;1256;139580;-61
2024/03/20 02:23:50;;;;;;;51.40;31.40;;;;;;;-1.84;79.64;102088.79;108979;1255;59828;-61
2024/03/20 02:26:17;;;;;;;57.80;33.00;;;;;;;-1.85;79.56;102085.56;109007;1256;60093;-61
2024/03/20 02:28:44;;;;;;;53.40;30.30;;;;;;;-1.82;79.82;102089.71;108872;1255;138740;-61
2024/03/20 02:31:11;;;;;;;56.60;32.70;;;;;;;-1.78;79.88;102093.34;109016;1256;66370;-61
2024/03/20 02:33:39;;;;;;;59.30;32.10;;;;;;;-1.73;80.01;102090.48;108840;1255;139032;-61
2024/03/20 02:36:06;;;;;;;55.80;31.90;;;;;;;-1.70;79.94;102083.24;105921;1259;62048;-61
2024/03/20 02:38:39;;;;;;;57.20;32.50;;;;;;;-1.65;80.02;102078.67;104827;1259;62087;-60
2024/03/20 02:41:06;;;;;;;;;;;;;;;-1.63;79.92;102082.55;104657;1259;139827;-60
2024/03/20 02:43:33;;;;;;;55.70;31.20;;;;;;;-1.60;79.98;102085.58;104673;1257;66619;-61
2024/03/20 02:46:00;;;;;;;55.20;32.10;;;;;;;-1.56;79.96;102086.98;108811;1256;138832;-61
2024/03/20 02:48:27;;;;;;;49.80;30.50;;;;;;;-1.51;80.02;102084.14;108916;1255;59829;-61
2024/03/20 02:50:53;;;;;;;49.20;29.40;;;;;;;-1.48;79.94;102083.20;108858;1256;139056;-61
2024/03/20 02:53:20;;;;;;;56.30;31.80;;;;;;;-1.44;79.97;102079.64;108939;1257;75300;-61
2024/03/20 02:55:47;;;;;;;54.40;29.60;;;;;;;-1.40;79.90;102078.34;108970;1256;66429;-62
2024/03/20 02:58:13;;;;;;;49.70;29.80;;;;;;;-1.38;79.89;102076.11;108887;1256;139034;-62
2024/03/20 03:00:40;;;;;;;50.00;29.90;;;;;;;-1.35;79.85;102083.27;108899;1256;59999;-62
2024/03/20 03:03:08;;;;;;;57.00;30.60;;;;;;;-1.31;80.03;102079.18;108792;1256;138965;-62
2024/03/20 03:05:36;;;;;;;52.80;30.60;;;;;;;-1.27;79.99;102079.52;108963;1256;75508;-61
2024/03/20 03:08:05;;;;;;;52.40;31.70;;;;;;;-1.26;79.85;102082.38;108991;1256;66802;-61
2024/03/20 03:10:32;;;;;;;50.30;30.50;;;;;;;-1.25;79.86;102083.83;108799;1256;138687;-61
2024/03/20 03:12:58;;;;;;;50.70;29.30;;;;;;;-1.25;79.85;102086.80;109016;1258;59722;-61
2024/03/20 03:15:25;;;;;;;48.50;28.80;;;;;;;-1.24;79.93;102085.19;108823;1256;139970;-61
2024/03/20 03:17:54;;;;;;;52.70;31.20;;;;;;;-1.23;79.92;102084.94;108952;1255;74462;-61
2024/03/20 03:20:23;;;;;;;48.50;29.60;;;;;;;-1.21;79.90;102085.79;108946;1255;65090;-62
2024/03/20 03:22:50;;;;;;;49.40;29.90;;;;;;;-1.18;79.96;102084.36;108664;1256;139164;-62
2024/03/20 03:25:17;;;;;;;55.00;29.70;;;;;;;-1.15;79.85;102077.19;108950;1256;59865;-60
2024/03/20 03:27:44;;;;;;;46.40;28.60;;;;;;;-1.12;79.95;102078.47;108754;1256;139111;-61
2024/03/20 03:30:11;;;;;;;49.30;27.60;;;;;;;-1.10;79.82;102077.30;109043;1259;73560;-60
2024/03/20 03:32:38;;;;;;;52.20;28.60;;;;;;;-1.07;79.96;102078.62;109041;1256;66397;-61
2024/03/20 03:35:06;;;;;;;52.40;29.40;;;;;;;-1.04;79.90;102082.89;108815;1255;138977;-61
2024/03/20 03:37:33;;;;;;;50.40;27.90;;;;;;;-1.04;79.66;102079.27;108910;1256;59998;-62
2024/03/20 03:40:00;;;;;;;45.30;27.50;;;;;;;-1.03;79.66;102073.64;108787;1256;139442;-61
2024/03/20 03:42:27;;;;;;;47.70;27.80;;;;;;;-1.03;79.62;102074.54;108733;1256;75428;-62
2024/03/20 03:44:53;;;;;;;48.00;28.20;;;;;;;-1.02;79.59;102066.17;104737;1256;139461;-64
2024/03/20 03:47:21;;;;;;;45.70;27.70;;;;;;;-1.00;79.58;102061.90;104960;1260;73292;-62
2024/03/20 03:49:48;;;;;;;50.40;28.30;;;;;;;-0.93;79.76;102062.66;108950;1256;59850;-62
2024/03/20 03:52:14;;;;;;;56.40;30.30;;;;;;;-0.92;79.72;102059.17;108901;1256;138741;-63
2024/03/20 03:54:41;;;;;;;58.50;31.90;;;;;;;-0.93;79.55;102058.34;108892;1257;75213;-63
2024/03/20 03:57:07;;;;;;;62.90;33.80;;;;;;;-0.93;79.62;102051.44;108912;1256;138369;-63
2024/03/20 03:59:34;;;;;;;65.50;35.50;;;;;;;-0.93;79.41;102052.84;107143;1256;72712;-62
2024/03/20 04:02:00;;;;;;;61.20;34.50;;;;;;;-0.94;79.52;102053.44;104880;1260;62083;-62
2024/03/20 04:04:28;;;;;;;59.60;33.20;;;;;;;-0.96;79.35;102051.36;104779;1256;138240;-63
2024/03/20 04:06:54;;;;;;;61.50;32.90;;;;;;;-1.01;79.43;102055.80;108978;1256;77193;-63
2024/03/20 04:09:21;;;;;;;62.70;32.50;;;;;;;-1.01;79.52;102061.59;107823;1256;139406;-62
2024/03/20 04:11:48;;;;;;;59.40;33.50;;;;;;;-1.00;79.66;102057.56;104841;1260;73348;-61
2024/03/20 04:14:15;;;;;;;57.40;33.50;;;;;;;-1.01;79.49;102053.67;104634;1262;62138;-62
2024/03/20 04:16:43;;;;;;;55.30;31.50;;;;;;;-1.04;79.43;102060.88;104693;1259;138814;-62
2024/03/20 04:19:10;;;;;;;56.70;31.00;;;;;;;-1.06;79.56;102061.64;108905;1256;72921;-63
2024/03/20 04:21:37;;;;;;;53.70;30.20;;;;;;;-1.06;79.55;102061.09;108823;1256;139993;-63
2024/03/20 04:24:04;;;;;;;52.10;29.20;;;;;;;-1.06;79.61;102059.61;108951;1256;73163;-63
2024/03/20 04:26:31;;;;;;;46.80;29.20;;;;;;;-1.05;79.45;102054.67;109032;1256;59797;-62
2024/03/20 04:28:58;;;;;;;46.40;28.40;;;;;;;-1.02;79.66;102059.09;108898;1256;138893;-63
2024/03/20 04:31:24;;;;;;;48.20;28.70;;;;;;;-0.96;79.74;102062.89;106227;1256;74211;-61
2024/03/20 04:33:51;;;;;;;44.30;27.20;;;;;;;-0.93;79.87;102060.81;104587;1256;139186;-61
2024/03/20 04:36:17;;;;;;;45.80;27.10;;;;;;;-0.89;79.62;102064.75;104693;1259;72433;-62
2024/03/20 04:38:44;;;;;;;48.20;27.90;;;;;;;-0.88;79.65;102060.60;104812;1256;61981;-62
2024/03/20 04:41:11;;;;;;;44.80;28.00;;;;;;;-0.86;79.77;102055.80;104677;1259;138333;-63
2024/03/20 04:43:38;;;;;;;46.80;27.30;;;;;;;-0.78;79.88;102046.09;104680;1256;76429;-63
2024/03/20 04:46:04;;;;;;;46.80;27.30;;;;;;;-0.73;79.76;102038.66;104618;1256;138122;-62
2024/03/20 04:48:31;;;;;;;43.00;27.00;;;;;;;-0.69;79.85;102036.95;105020;1259;71544;-63
2024/03/20 04:50:58;;;;;;;43.50;27.00;;;;;;;-0.66;79.80;102038.96;104851;1256;138224;-62
2024/03/20 04:53:25;;;;;;;49.60;29.30;;;;;;;-0.58;79.99;102039.33;104704;1256;62781;-61
2024/03/20 04:55:52;;;;;;;50.90;29.80;;;;;;;-0.47;80.08;102041.20;104901;1256;76251;-62
2024/03/20 04:58:18;;;;;;;53.70;31.90;;;;;;;-0.36;79.95;102040.79;104633;1262;138022;-62
2024/03/20 05:00:45;;;;;;;49.50;30.50;;;;;;;-0.29;80.08;102041.78;104808;1259;73716;-62
2024/03/20 05:03:12;;;;;;;48.30;30.10;;;;;;;-0.22;79.78;102046.16;104825;1259;139556;-62
2024/03/20 05:05:39;;;;;;;50.20;32.20;;;;;;;-0.20;79.62;102045.99;104693;1256;62458;-61
2024/03/20 05:08:06;;;;;;;52.60;30.80;;;;;;;-0.18;79.70;102044.08;104715;1261;74882;-61
2024/03/20 05:10:32;;;;;;;48.90;30.50;;;;;;;-0.12;79.69;102040.11;104864;1256;138966;-62
2024/03/20 05:12:59;;;;;;;47.90;30.00;;;;;;;-0.07;79.58;102043.00;105096;1259;73453;-62
2024/03/20 05:15:26;;;;;;;44.60;29.30;;;;;;;-0.03;79.55;102042.30;104912;1259;139732;-62
2024/03/20 05:17:52;;;;;;;46.20;29.10;;;;;;;-0.03;79.44;102046.11;104885;1256;62065;-63
2024/03/20 05:20:19;;;;;;;45.80;28.20;;;;;;;-0.04;79.37;102041.05;104778;1257;76224;-62
2024/03/20 05:22:45;;;;;;;54.30;31.10;;;;;;;-0.02;79.33;102042.23;104956;1256;138905;-62
2024/03/20 05:25:12;;;;;;;49.70;31.50;;;;;;;0.02;79.42;102039.14;104951;1261;73648;-61
2024/03/20 05:27:39;;;;;;;54.60;34.10;;;;;;;0.06;79.39;102044.48;104841;1258;138952;-61
2024/03/20 05:30:06;;;;;;;55.70;33.60;;;;;;;0.10;79.38;102049.65;104978;1258;61414;-62
2024/03/20 05:32:33;;;;;;;60.80;37.40;;;;;;;0.14;79.35;102055.90;109050;1256;76085;-62
2024/03/20 05:34:59;;;;;;;76.10;43.60;;;;;;;0.19;79.42;102056.35;108788;1256;138301;-61
2024/03/20 05:37:26;;;;;;;81.70;45.00;;;;;;;0.28;79.40;102059.34;108789;1256;73414;-63
2024/03/20 05:39:53;;;;;;;78.50;46.00;;;;;;;0.38;79.50;102061.75;107042;1260;137966;-63
2024/03/20 05:42:19;;;;;;;81.40;45.10;;;;;;;0.49;79.64;102069.25;104772;1259;62134;-63
2024/03/20 05:44:46;;;;;;;87.30;47.20;;;;;;;0.62;79.58;102073.73;104757;1256;74256;-64
2024/03/20 05:47:13;;;;;;;79.50;44.40;;;;;;;0.76;79.40;102073.03;104544;1261;139054;-64
2024/03/20 05:49:42;;;;;;;81.70;47.30;;;;;;;0.89;79.31;102068.87;104739;1259;73428;-63
2024/03/20 05:52:08;;;;;;;86.90;49.50;;;;;;;1.08;79.76;102066.38;104473;1259;139057;-63
2024/03/20 05:54:35;;;;;;;80.30;45.60;;;;;;;1.30;79.70;102067.70;104763;1262;62031;-64
2024/03/20 05:57:02;;;;;;;75.20;45.30;;;;;;;1.51;79.57;102064.10;104553;1262;139158;-62
2024/03/20 05:59:28;;;;;;;78.10;43.80;;;;;;;1.73;79.65;102060.16;104697;1261;66010;-62
2024/03/20 06:01:55;;;;;;;73.10;43.10;;;;;;;1.92;79.30;102063.60;104757;1260;72109;-63
2024/03/20 06:04:22;;;;;;;69.70;45.10;;;;;;;2.09;79.03;102067.05;104747;1256;138158;-63
2024/03/20 06:06:48;;;;;;;74.70;45.50;;;;;;;2.29;79.02;102064.27;104796;1256;62047;-63
2024/03/20 06:09:18;;;;;;;77.10;45.40;;;;;;;2.46;78.75;102064.56;104755;1260;138140;-63
2024/03/20 06:11:44;;;;;;;74.20;44.90;;;;;;;2.60;78.58;102062.71;104815;1259;67178;-62
2024/03/20 06:14:11;;;;;;;73.30;45.10;;;;;;;2.65;78.15;102054.80;104877;1262;73661;-63
2024/03/20 06:16:38;;;;;;;73.50;44.50;;;;;;;2.68;77.87;102057.13;104696;1256;137828;-61
2024/03/20 06:19:05;;;;;;;68.70;41.50;;;;;;;2.75;77.92;102060.23;108821;1256;59755;-60
2024/03/20 06:21:32;;;;;;;72.40;42.80;;;;;;;2.81;77.92;102059.48;108932;1256;138556;-63
2024/03/20 06:23:58;;;;;;;61.90;39.80;;;;;;;2.89;77.93;102055.60;108914;1256;65123;-63
2024/03/20 06:26:26;;;;;;;66.10;39.10;;;;;;;2.94;77.62;102055.08;108982;1256;72718;-63
2024/03/20 06:28:52;;;;;;;58.90;37.90;;;;;;;2.99;77.54;102055.64;108869;1256;139632;-63
2024/03/20 06:31:19;;;;;;;67.80;37.80;;;;;;;3.01;77.31;102052.13;109005;1256;60032;-63
2024/03/20 06:33:48;;;;;;;61.60;39.90;;;;;;;3.03;77.33;102058.75;108853;1256;140399;-63
2024/03/20 06:36:15;;;;;;;63.50;40.70;;;;;;;3.06;77.23;102056.58;108988;1256;67344;-63
2024/03/20 06:38:42;;;;;;;63.20;41.00;;;;;;;3.08;77.20;102050.13;109022;1256;73594;-65
2024/03/20 06:41:09;;;;;;;58.50;39.40;;;;;;;3.15;77.19;102050.60;108705;1256;138228;-64
2024/03/20 06:43:35;;;;;;;60.60;40.20;;;;;;;3.21;77.13;102052.27;108954;1257;60868;-65
2024/03/20 06:46:02;;;;;;;65.90;40.90;;;;;;;3.26;77.01;102053.55;108763;1256;137978;-65
2024/03/20 06:48:29;;;;;;;64.40;42.60;;;;;;;3.30;76.98;102053.37;108356;1257;66270;-64
2024/03/20 06:50:58;;;;;;;64.60;40.90;;;;;;;3.40;77.07;102055.41;104843;1256;139471;-66
2024/03/20 06:53:26;;;;;;;65.50;41.50;;;;;;;3.54;77.27;102055.13;104877;1257;63772;-66
2024/03/20 06:55:55;;;;;;;64.60;42.20;;;;;;;3.70;77.43;102049.73;104676;1256;62090;-65
2024/03/20 06:58:22;;;;;;;71.80;44.20;;;;;;;3.82;77.13;102050.17;108668;1256;139382;-65
2024/03/20 07:00:48;;;;;;;71.20;45.90;;;;;;;3.92;76.84;102049.17;108863;1256;67570;-65
2024/03/20 07:03:16;;;;;;;69.10;42.60;;;;;;;4.03;77.03;102052.62;108912;1256;139146;-65
2024/03/20 07:05:43;;;;;;;64.40;43.30;;;;;;;4.17;76.91;102053.61;108975;1256;59769;-65
2024/03/20 07:08:09;;;;;;;63.30;40.90;;;;;;;4.30;76.78;102052.13;108987;1256;59842;-65
2024/03/20 07:10:37;;;;;;;61.60;40.30;;;;;;;4.41;76.51;102047.48;108853;1256;138858;-65
2024/03/20 07:13:04;;;;;;;60.40;39.10;;;;;;;4.53;76.42;102048.33;109018;1257;66809;-65
2024/03/20 07:15:32;;;;;;;59.20;39.50;;;;;;;4.61;76.17;102043.16;108863;1259;138615;-64
2024/03/20 07:17:59;;;;;;;60.00;38.40;;;;;;;4.68;76.05;102039.82;108860;1258;59825;-65
2024/03/20 07:20:26;;;;;;;61.80;39.80;;;;;;;4.71;75.80;102038.66;104934;1264;62049;-64
2024/03/20 07:22:53;;;;;;;63.30;41.20;;;;;;;4.82;75.86;102037.11;104573;1256;138141;-65
2024/03/20 07:25:21;;;;;;;57.60;39.70;;;;;;;4.86;75.62;102033.27;104808;1256;65027;-65
2024/03/20 07:27:48;;;;;;;63.00;42.60;;;;;;;4.92;75.61;102035.89;104845;1261;138595;-65
2024/03/20 07:30:15;;;;;;;59.10;40.20;;;;;;;4.96;75.48;102034.98;104844;1260;61940;-66
2024/03/20 07:32:41;;;;;;;60.90;41.60;;;;;;;5.00;75.43;102032.09;104789;1260;62120;-68
2024/03/20 07:35:08;;;;;;;59.80;41.50;;;;;;;5.12;75.61;102034.48;104675;1260;137914;-68
2024/03/20 07:37:35;;;;;;;59.30;41.20;;;;;;;5.26;75.57;102035.39;104847;1262;67641;-68
2024/03/20 07:40:04;;;;;;;58.70;40.70;;;;;;;5.37;75.45;102036.66;104820;1260;138107;-68
2024/03/20 07:42:31;;;;;;;65.40;42.20;;;;;;;5.45;75.37;102035.63;105096;1258;62167;-67
2024/03/20 07:44:57;;;;;;;61.10;38.50;;;;;;;5.55;75.27;102034.90;104770;1260;139381;-66
2024/03/20 07:47:25;;;;;;;62.50;42.30;;;;;;;5.61;75.01;102030.94;104865;1259;73808;-67
2024/03/20 07:49:52;;;;;;;63.30;43.20;;;;;;;5.66;75.05;102025.53;105096;1260;65167;-68
2024/03/20 07:52:19;;;;;;;65.60;43.00;;;;;;;5.77;75.09;102020.14;104697;1260;138879;-67
2024/03/20 07:54:45;;;;;;;69.30;46.10;;;;;;;5.87;75.03;102020.58;104889;1261;62516;-67
2024/03/20 07:57:12;;;;;;;64.20;44.60;;;;;;;5.91;74.91;102022.59;104983;1258;138871;-67
2024/03/20 07:59:39;;;;;;;61.10;42.40;;;;;;;5.98;74.88;102025.33;104921;1259;76096;-67
2024/03/20 08:02:06;;;;;;;59.90;41.00;;;;;;;6.10;74.94;102030.95;104776;1261;67242;-68
2024/03/20 08:04:38;;;;;;;57.40;39.60;;;;;;;6.26;75.06;102029.54;104634;1259;138735;-67
2024/03/20 08:07:06;;;;;;;54.60;38.20;;;;;;;6.42;74.89;102034.39;105283;1260;62161;-66
2024/03/20 08:09:33;;;;;;;53.50;38.10;;;;;;;6.55;74.78;102036.39;104836;1261;138299;-66
2024/03/20 08:12:00;;;;;;;54.50;37.90;;;;;;;6.62;74.52;102034.23;104765;1260;76181;-68
2024/03/20 08:14:27;;;;;;;53.30;37.90;;;;;;;6.63;74.30;102037.26;107406;1261;66944;-67
2024/03/20 08:16:54;;;;;;;53.40;37.40;;;;;;;6.74;74.26;102036.68;104594;1262;138543;-66
2024/03/20 08:19:21;;;;;;;55.20;38.70;;;;;;;6.80;74.06;102031.50;104813;1259;62029;-67
2024/03/20 08:21:49;;;;;;;48.90;35.40;;;;;;;6.78;73.69;102033.96;105053;1259;138109;-68
2024/03/20 08:24:16;;;;;;;59.20;38.40;;;;;;;6.73;73.48;102035.39;105028;1259;76435;-66
2024/03/20 08:26:42;;;;;;;50.50;35.80;;;;;;;6.71;73.53;102038.08;104883;1262;66425;-67
2024/03/20 08:29:09;;;;;;;55.20;37.10;;;;;;;6.72;73.47;102038.83;104786;1262;137821;-67
2024/03/20 08:31:37;;;;;;;51.50;37.00;;;;;;;6.71;73.37;102036.70;104933;1261;62051;-68
2024/03/20 08:34:04;;;;;;;53.10;37.60;;;;;;;6.70;73.41;102038.75;105495;1260;138298;-67
2024/03/20 08:36:30;;;;;;;48.90;34.90;;;;;;;6.76;73.46;102032.80;104894;1262;392304;-68
2024/03/20 08:38:57;;;;;;;45.10;32.70;;;;;;;6.82;73.49;102032.46;104846;1261;139332;-68
2024/03/20 08:41:24;;;;;;;47.00;32.40;;;;;;;6.88;73.42;102030.70;104784;1257;72666;-68
2024/03/20 08:43:50;;;;;;;42.80;33.40;;;;;;;6.93;73.26;102029.80;104828;1262;62161;-68
2024/03/20 08:46:19;;;;;;;47.80;32.80;;;;;;;6.96;73.14;102026.52;104926;1262;138456;-68
2024/03/20 08:48:46;;;;;;;46.30;34.00;;;;;;;6.97;72.78;102026.73;105029;1260;75524;-68
2024/03/20 08:51:12;;;;;;;46.70;35.30;;;;;;;6.96;72.70;102026.34;104837;1259;138627;-68
2024/03/20 08:53:39;;;;;;;58.20;38.80;;;;;;;7.02;72.63;102021.30;104926;1260;73156;-67
2024/03/20 08:56:06;;;;;;;53.70;36.10;;;;;;;7.20;72.93;102017.42;104950;1262;62076;-65
2024/03/20 08:58:32;;;;;;;45.20;34.10;;;;;;;7.47;73.03;102015.38;104658;1258;138100;-67
2024/03/20 09:00:59;;;;;;;42.70;32.90;;;;;;;7.76;73.03;102011.91;104800;1260;76448;-64
2024/03/20 09:03:26;;;;;;;45.30;34.30;;;;;;;8.09;73.02;102010.80;104649;1262;138472;-64
2024/03/20 09:05:53;;;;;;;42.10;32.70;;;;;;;8.37;72.63;102007.27;104857;1262;71732;-65
2024/03/20 09:08:20;;;;;;;47.70;34.40;;;;;;;8.50;71.99;102004.48;104738;1259;62153;-64
2024/03/20 09:10:47;;;;;;;40.50;32.00;;;;;;;8.65;71.85;102003.02;104698;1262;138282;-64
2024/03/20 09:13:14;;;;;;;44.40;31.10;;;;;;;8.91;71.80;102002.09;104767;1260;76159;-65
2024/03/20 09:15:40;;;;;;;38.00;30.20;;;;;;;9.10;71.24;102002.74;104676;1260;138195;-64
2024/03/20 09:18:07;;;;;;;41.80;30.60;;;;;;;9.24;70.88;102000.80;104622;1260;73050;-65
2024/03/20 09:20:34;;;;;;;39.60;30.10;;;;;;;9.41;70.84;102000.77;104795;1262;62120;-65
2024/03/20 09:23:04;;;;;;;39.80;29.30;;;;;;;9.58;70.55;101998.81;104735;1259;138871;-65
2024/03/20 09:25:31;;;;;;;37.90;28.80;;;;;;;9.76;70.40;102000.41;104773;1262;76008;-65
2024/03/20 09:27:59;;;;;;;39.60;30.60;;;;;;;9.96;69.90;101999.73;104608;1262;138748;-65
2024/03/20 09:30:27;;;;;;;37.70;29.40;;;;;;;10.05;69.45;101997.17;108871;1261;73200;-65
2024/03/20 09:32:53;;;;;;;38.80;29.40;;;;;;;10.16;69.20;101996.64;108827;1258;139788;-65
2024/03/20 09:35:20;;;;;;;35.90;27.90;;;;;;;10.29;69.00;101990.77;108912;1257;60845;-65
2024/03/20 09:37:47;;;;;;;35.90;26.80;;;;;;;10.36;68.36;101990.23;108934;1258;75852;-64
2024/03/20 09:40:17;;;;;;;32.70;26.60;;;;;;;10.41;68.22;101983.27;108804;1259;138449;-65
2024/03/20 09:42:43;;;;;;;35.40;26.50;;;;;;;10.55;68.15;101982.66;108964;1258;72037;-64
2024/03/20 09:45:11;;;;;;;34.20;26.10;;;;;;;10.70;67.80;101986.66;108834;1257;138544;-64
2024/03/20 09:47:38;;;;;;;33.60;26.40;;;;;;;10.82;67.49;101984.20;108858;1258;60578;-65
2024/03/20 09:50:11;;;;;;;32.30;26.30;;;;;;;10.95;67.32;101986.55;108863;1257;74221;-65
2024/03/20 09:52:37;;;;;;;34.10;26.10;;;;;;;11.11;67.09;101985.45;108758;1260;139397;-65
2024/03/20 09:55:07;;;;;;;33.00;26.30;;;;;;;11.24;66.77;101983.39;108858;1260;73634;-65
2024/03/20 09:57:33;;;;;;;30.90;25.70;;;;;;;11.32;66.24;101982.48;108820;1260;139731;-65
2024/03/20 10:00:00;;;;;;;32.20;25.50;;;;;;;11.39;65.89;101977.65;108838;1258;59801;-65
2024/03/20 10:02:27;;;;;;;33.70;26.40;;;;;;;11.40;65.69;101975.23;108929;1258;74787;-65
2024/03/20 10:04:55;;;;;;;34.60;25.10;;;;;;;11.43;65.39;101970.98;108841;1257;139412;-65
2024/03/20 10:07:22;;;;;;;30.80;24.90;;;;;;;11.44;64.95;101971.18;108902;1257;72050;-66
2024/03/20 10:09:48;;;;;;;36.00;27.70;;;;;;;11.41;64.81;101964.58;105460;1261;138794;-65
2024/03/20 10:12:16;;;;;;;28.40;25.10;;;;;;;11.40;64.63;101965.25;104945;1262;61947;-64
2024/03/20 10:14:42;;;;;;;29.20;24.30;;;;;;;11.47;64.66;101966.05;105388;1257;76374;-64
2024/03/20 10:17:16;;;;;;;30.80;23.60;;;;;;;11.58;64.61;101966.46;104503;1260;138562;-64
2024/03/20 10:19:43;;;;;;;29.80;24.70;;;;;;;11.71;64.36;101968.77;104691;1262;72249;-64
2024/03/20 10:22:10;;;;;;;29.80;24.10;;;;;;;11.75;64.13;101969.45;104635;1262;138421;-65
2024/03/20 10:24:37;;;;;;;29.00;23.70;;;;;;;11.75;63.75;101965.02;104818;1262;61978;-65
2024/03/20 10:27:05;;;;;;;28.90;24.50;;;;;;;11.74;63.56;101965.02;105954;1261;138605;-64
2024/03/20 10:29:33;;;;;;;36.20;28.00;;;;;;;11.73;63.20;101961.48;108844;1257;67131;-64
2024/03/20 10:32:01;;;;;;;34.30;27.70;;;;;;;11.67;62.88;101955.23;108894;1260;73797;-65
2024/03/20 10:34:28;;;;;;;32.00;26.10;;;;;;;11.70;62.86;101953.27;108778;1261;139019;-65
2024/03/20 10:36:55;;;;;;;32.10;25.30;;;;;;;11.79;62.78;101947.64;108923;1258;60421;-65
2024/03/20 10:39:27;;;;;;;29.00;23.70;;;;;;;11.89;62.58;101948.02;106461;1259;138564;-64
2024/03/20 10:41:54;;;;;;;30.00;24.50;;;;;;;11.98;62.39;101951.21;104552;1265;66296;-65
2024/03/20 10:44:22;;;;;;;29.50;24.80;;;;;;;12.07;62.14;101944.88;108868;1261;73012;-65
2024/03/20 10:46:54;;;;;;;30.90;25.40;;;;;;;12.11;61.98;101942.56;108650;1257;138671;-65
2024/03/20 10:49:22;;;;;;;30.50;25.40;;;;;;;12.04;61.47;101939.65;108906;1257;59927;-65
2024/03/20 10:51:49;;;;;;;35.30;27.50;;;;;;;11.93;61.38;101938.51;106659;1262;138415;-65
2024/03/20 10:54:16;;;;;;;32.70;26.80;;;;;;;11.79;61.11;101938.13;105616;1259;65688;-65
2024/03/20 10:56:50;;;;;;;33.20;26.70;;;;;;;11.67;60.95;101932.92;104767;1262;73759;-65
2024/03/20 10:59:20;;;;;;;;;;;;;;;11.57;61.00;101926.36;108707;1258;138690;-64
2024/03/20 11:02:06;;;;;;;33.90;27.90;;;;;;;11.48;60.82;101926.02;108876;1257;60342;-64